Time;durP1;ratioP1;P1;durP2;ratioP2;P2;SDS_P1;SDS_P2;PMS_P1;PMS_P2;Temp;Humidity;BMP_temperature;BMP_pressure;BME280_temperature;BME280_humidity;BME280_pressure;Samples;Min_cycle;Max_cycle;Signal;HPM_P1;HPM_P2
2022/08/09 00:00:14;;;;;;;11.18;10.23;;;;;16.10;99267.00;;;;4984601;28;87696;-63
2022/08/09 00:02:41;;;;;;;10.80;9.77;;;;;16.10;99247.00;;;;4979836;28;87285;-63
2022/08/09 00:05:07;;;;;;;11.45;10.07;;;15.60;99.90;16.10;99221.00;;;;4986690;28;87338;-63
2022/08/09 00:07:33;;;;;;;11.60;9.90;;;;;16.00;99211.00;;;;4994677;28;87494;-63
2022/08/09 00:10:00;;;;;;;12.27;11.18;;;;;16.00;99202.00;;;;4993280;28;86983;-63
2022/08/09 00:12:26;;;;;;;12.80;11.60;;;;;16.00;99211.00;;;;4996908;28;87590;-63
2022/08/09 00:14:52;;;;;;;13.07;11.65;;;16.50;99.90;16.00;99208.00;;;;4988031;28;87378;-64
2022/08/09 00:17:19;;;;;;;12.70;11.40;;;16.00;99.90;16.00;99200.00;;;;4992871;28;86981;-64
2022/08/09 00:19:45;;;;;;;14.75;13.45;;;;;15.90;99209.00;;;;4987832;28;91045;-64
2022/08/09 00:22:11;;;;;;;13.75;12.55;;;16.10;99.90;15.90;99199.00;;;;4986134;28;88292;-63
2022/08/09 00:24:37;;;;;;;14.10;13.00;;;16.10;99.90;15.90;99212.00;;;;4996044;28;87020;-64
2022/08/09 00:27:04;;;;;;;13.52;12.43;;;15.50;99.90;15.90;99201.00;;;;4996742;28;87734;-64
2022/08/09 00:29:30;;;;;;;14.60;13.40;;;15.50;99.90;15.80;99209.00;;;;4988896;28;87612;-63
2022/08/09 00:31:56;;;;;;;14.85;13.55;;;16.20;99.90;15.80;99197.00;;;;4996440;28;87419;-63
2022/08/09 00:34:23;;;;;;;13.70;12.60;;;;;15.70;99209.00;;;;4988499;28;86956;-64
2022/08/09 00:36:49;;;;;;;14.60;13.32;;;;;15.70;99198.00;;;;4989617;28;88733;-64
2022/08/09 00:39:16;;;;;;;15.40;14.18;;;15.60;99.90;15.70;99184.00;;;;4988558;28;87542;-64
2022/08/09 00:41:43;;;;;;;14.80;13.50;;;15.90;99.90;15.70;99170.00;;;;4990201;28;86971;-63
2022/08/09 00:44:09;;;;;;;16.33;15.02;;;;;15.70;99184.00;;;;4987438;28;88990;-63
2022/08/09 00:46:35;;;;;;;17.48;15.98;;;15.90;99.90;15.60;99191.00;;;;4987888;28;87257;-64
2022/08/09 00:49:02;;;;;;;16.20;14.90;;;15.60;99.90;15.60;99210.00;;;;4990218;28;87759;-65
2022/08/09 00:51:28;;;;;;;15.95;14.63;;;;;15.60;99210.00;;;;4989322;28;89482;-63
2022/08/09 00:53:55;;;;;;;14.90;13.80;;;;;15.50;99216.00;;;;4988965;28;86966;-63
2022/08/09 00:56:21;;;;;;;15.18;13.93;;;;;15.50;99210.00;;;;4991246;28;86976;-63
2022/08/09 00:58:49;;;;;;;15.95;14.55;;;;;15.50;99214.00;;;;4989939;28;87863;-64
2022/08/09 01:01:21;;;;;;;15.43;14.13;;;15.90;99.90;15.50;99207.00;;;;4992256;28;87126;-63
2022/08/09 01:04:07;;;;;;;14.73;13.50;;;14.90;99.90;15.40;99199.00;;;;4991018;28;87594;-63
2022/08/09 01:06:43;;;;;;;15.70;14.13;;;;;15.40;99204.00;;;;4990903;28;87029;-63
2022/08/09 01:09:48;;;;;;;15.10;13.88;;;15.40;99.90;15.40;99214.00;;;;4988223;28;89708;-63
2022/08/09 01:12:37;;;;;;;15.15;13.95;;;15.00;99.90;15.40;99221.00;;;;4988534;28;88019;-63
2022/08/09 01:15:14;;;;;;;16.00;14.60;;;15.30;99.90;15.40;99209.00;;;;4989650;28;86949;-63
2022/08/09 01:18:19;;;;;;;15.50;14.05;;;14.90;99.90;15.40;99216.00;;;;4993355;28;87002;-63
2022/08/09 01:21:05;;;;;;;16.73;15.20;;;;;15.30;99225.00;;;;4990557;28;88146;-64
2022/08/09 01:24:04;;;;;;;15.82;14.32;;;15.30;99.90;15.30;99226.00;;;;4991227;28;87583;-63
2022/08/09 01:27:06;;;;;;;15.75;14.45;;;14.90;99.90;15.30;99230.00;;;;4970142;28;87027;-63
2022/08/09 01:29:53;;;;;;;;;;;15.30;99.90;15.30;99215.00;;;;5000529;28;86642;-64
2022/08/09 01:32:22;;;;;;;17.20;15.77;;;15.00;99.90;15.30;99212.00;;;;4986794;28;88630;-65
2022/08/09 01:34:52;;;;;;;18.20;16.70;;;15.60;99.90;15.30;99228.00;;;;4993679;28;87450;-64
2022/08/09 01:37:21;;;;;;;17.58;16.13;;;15.30;99.90;15.40;99223.00;;;;4971046;28;88898;-66
2022/08/09 01:39:51;;;;;;;18.50;17.00;;;15.50;99.90;15.50;99225.00;;;;4986648;28;87231;-65
2022/08/09 01:42:19;;;;;;;17.83;16.23;;;15.40;99.90;15.50;99223.00;;;;4988562;28;87596;-64
2022/08/09 01:44:47;;;;;;;18.08;16.02;;;15.80;99.90;15.50;99225.00;;;;4965521;28;87567;-65
2022/08/09 01:47:14;;;;;;;17.92;16.35;;;14.90;99.90;15.50;99222.00;;;;4986767;28;87341;-64
2022/08/09 01:49:41;;;;;;;18.17;16.85;;;15.60;99.90;15.50;99221.00;;;;4991557;28;87061;-63
2022/08/09 01:52:12;;;;;;;19.70;17.38;;;15.00;99.90;15.50;99231.00;;;;4996829;28;88113;-63
2022/08/09 01:54:53;;;;;;;18.70;17.08;;;15.40;99.90;15.50;99229.00;;;;4993082;28;86359;-63
2022/08/09 01:57:36;;;;;;;17.50;16.10;;;15.10;99.90;15.50;99234.00;;;;4990757;28;87361;-63
2022/08/09 02:00:05;;;;;;;18.38;16.77;;;15.10;99.90;15.60;99227.00;;;;4996348;28;87414;-65
2022/08/09 02:02:43;;;;;;;18.90;17.40;;;15.50;99.90;15.60;99233.00;;;;4990542;28;88581;-65
2022/08/09 02:05:12;;;;;;;18.27;16.63;;;15.50;99.90;15.60;99239.00;;;;4990229;28;88235;-65
2022/08/09 02:07:49;;;;;;;18.40;16.50;;;16.30;99.90;15.60;99238.00;;;;4987010;28;87470;-64
2022/08/09 02:10:24;;;;;;;16.35;15.00;;;16.00;99.90;15.60;99244.00;;;;4992462;28;86911;-64
2022/08/09 02:12:54;;;;;;;16.75;15.07;;;16.20;99.90;15.60;99239.00;;;;4997611;28;87543;-65
2022/08/09 02:15:24;;;;;;;17.45;15.82;;;15.50;99.90;15.60;99255.00;;;;5000544;28;88030;-65
2022/08/09 02:17:52;;;;;;;15.75;14.27;;;15.40;99.90;15.50;99246.00;;;;4994106;28;87165;-65
2022/08/09 02:20:19;;;;;;;15.80;14.18;;;;;15.50;99247.00;;;;4990372;28;86322;-65
2022/08/09 02:23:03;;;;;;;16.02;14.57;;;15.40;99.90;15.50;99244.00;;;;4991002;28;88631;-64
2022/08/09 02:25:33;;;;;;;15.68;14.27;;;15.40;99.90;15.50;99236.00;;;;4991298;28;87360;-64
2022/08/09 02:28:22;;;;;;;15.03;13.73;;;15.40;99.90;15.40;99240.00;;;;4991630;28;88380;-65
2022/08/09 02:31:00;;;;;;;16.20;14.88;;;15.40;99.90;15.40;99232.00;;;;4991033;28;88016;-65
2022/08/09 02:33:33;;;;;;;16.20;14.73;;;15.30;99.90;15.40;99233.00;;;;4990720;28;87507;-65
2022/08/09 02:36:01;;;;;;;17.48;15.93;;;15.40;99.90;15.50;99239.00;;;;4991709;28;88527;-64
2022/08/09 02:38:34;;;;;;;16.35;14.85;;;15.40;99.90;15.50;99236.00;;;;4993471;28;88071;-65
2022/08/09 02:41:18;;;;;;;17.35;15.73;;;15.40;99.90;15.50;99251.00;;;;4986168;28;87000;-63
2022/08/09 02:43:48;;;;;;;16.27;14.93;;;15.40;99.90;15.50;99254.00;;;;4990643;28;87016;-65
2022/08/09 02:46:16;;;;;;;16.80;15.43;;;15.40;99.90;15.50;99255.00;;;;4993197;28;87144;-65
2022/08/09 02:48:44;;;;;;;16.35;14.85;;;15.40;99.90;15.50;99256.00;;;;4993248;28;86960;-64
2022/08/09 02:51:14;;;;;;;15.85;14.23;;;15.40;99.90;15.50;99265.00;;;;4995985;28;88072;-65
2022/08/09 02:53:53;;;;;;;14.40;13.10;;;14.70;99.90;15.50;99275.00;;;;4988843;28;88540;-65
2022/08/09 02:56:20;;;;;;;13.23;12.02;;;15.50;99.90;15.60;99283.00;;;;4990451;28;88362;-64
2022/08/09 02:58:48;;;;;;;12.85;11.65;;;15.40;99.90;15.60;99279.00;;;;4959639;28;87190;-64
2022/08/09 03:01:15;;;;;;;12.07;11.07;;;15.50;99.90;15.60;99286.00;;;;4991930;28;87183;-64
2022/08/09 03:03:43;;;;;;;11.32;10.23;;;15.50;99.90;15.60;99286.00;;;;4988104;28;88726;-64
2022/08/09 03:06:13;;;;;;;11.40;10.30;;;;;15.60;99275.00;;;;4989641;28;88625;-63
2022/08/09 03:08:50;;;;;;;10.63;9.52;;;15.50;99.90;15.60;99279.00;;;;4988311;28;86988;-64
2022/08/09 03:11:20;;;;;;;11.40;9.88;;;15.60;99.90;15.70;99269.00;;;;4988455;28;86282;-65
2022/08/09 03:13:47;;;;;;;9.95;8.93;;;15.60;99.90;15.70;99268.00;;;;4992318;28;88132;-65
2022/08/09 03:16:17;;;;;;;11.15;10.00;;;15.60;99.90;15.70;99262.00;;;;4996488;28;88412;-65
2022/08/09 03:18:46;;;;;;;10.88;9.77;;;15.90;99.90;15.70;99279.00;;;;4992581;28;87908;-65
2022/08/09 03:21:15;;;;;;;10.10;9.10;;;15.60;99.90;15.70;99278.00;;;;4995144;28;87148;-65
2022/08/09 03:23:45;;;;;;;10.00;9.00;;;;;15.80;99274.00;;;;4994923;28;88697;-66
2022/08/09 03:26:19;;;;;;;9.98;8.98;;;15.60;99.90;15.80;99272.00;;;;4994392;28;88008;-65
2022/08/09 03:28:54;;;;;;;10.88;9.18;;;15.80;99.90;15.90;99269.00;;;;4968406;28;87071;-64
2022/08/09 03:31:22;;;;;;;9.93;8.27;;;15.60;99.90;15.90;99274.00;;;;4994339;28;87072;-64
2022/08/09 03:33:50;;;;;;;10.65;8.98;;;15.80;99.90;15.90;99272.00;;;;4988569;28;87495;-64
2022/08/09 03:36:16;;;;;;;12.82;8.50;;;15.80;99.90;16.00;99266.00;;;;4993932;28;88439;-63
2022/08/09 03:38:43;;;;;;;10.38;9.38;;;15.90;99.90;16.00;99256.00;;;;4994367;28;87071;-63
2022/08/09 03:41:14;;;;;;;10.07;8.57;;;15.90;99.90;16.10;99259.00;;;;4994216;28;86966;-64
2022/08/09 03:43:41;;;;;;;9.30;8.35;;;;;16.10;99250.00;;;;4988788;28;88787;-64
2022/08/09 03:46:07;;;;;;;10.02;8.80;;;16.30;99.90;16.10;99249.00;;;;4991758;28;89355;-63
2022/08/09 03:48:35;;;;;;;10.77;9.40;;;15.90;99.90;16.10;99258.00;;;;4990626;28;87079;-64
2022/08/09 03:51:05;;;;;;;12.25;9.18;;;;;16.10;99264.00;;;;4997118;28;88056;-64
2022/08/09 03:53:34;;;;;;;10.02;9.00;;;16.10;99.90;16.20;99266.00;;;;4976041;28;89180;-64
2022/08/09 03:56:01;;;;;;;11.50;9.88;;;16.00;99.90;16.20;99268.00;;;;5002042;28;87274;-63
2022/08/09 03:58:27;;;;;;;10.07;8.93;;;;;16.20;99268.00;;;;4990254;28;87600;-64
2022/08/09 04:00:54;;;;;;;11.98;7.65;;;16.00;99.90;16.40;99288.00;;;;4997926;28;86264;-66
2022/08/09 04:03:21;;;;;;;13.75;7.70;;;;;16.40;99280.00;;;;4985398;28;87621;-65
2022/08/09 04:05:47;;;;;;;8.13;6.80;;;;;16.40;99280.00;;;;4988634;28;87574;-67
2022/08/09 04:08:14;;;;;;;10.65;7.60;;;;;16.40;99279.00;;;;4974030;28;87879;-67
2022/08/09 04:10:41;;;;;;;10.65;6.78;;;;;16.50;99270.00;;;;4966227;28;87235;-66
2022/08/09 04:13:10;;;;;;;10.85;6.53;;;;;16.70;99271.00;;;;4986339;28;88077;-66
2022/08/09 04:15:38;;;;;;;11.63;6.60;;;16.60;99.90;16.70;99271.00;;;;4994831;28;87409;-67
2022/08/09 04:18:06;;;;;;;7.10;5.82;;;16.60;99.90;16.80;99280.00;;;;4984351;28;87426;-68
2022/08/09 04:20:32;;;;;;;9.48;5.97;;;16.20;99.90;16.70;99280.00;;;;4997926;28;87231;-61
2022/08/09 04:22:58;;;;;;;8.77;5.88;;;16.50;99.90;16.70;99279.00;;;;4994029;28;89037;-61
2022/08/09 04:25:25;;;;;;;8.93;6.78;;;;;16.70;99275.00;;;;4992765;28;87213;-62
2022/08/09 04:27:51;;;;;;;7.47;6.50;;;16.70;99.90;16.60;99273.00;;;;4989052;28;87087;-62
2022/08/09 04:30:21;;;;;;;10.02;5.85;;;16.60;99.90;16.80;99263.00;;;;4989607;28;87315;-62
2022/08/09 04:32:48;;;;;;;11.20;7.30;;;16.70;99.90;16.70;99275.00;;;;4993197;28;88508;-59
2022/08/09 04:35:15;;;;;;;7.55;6.53;;;;;16.60;99278.00;;;;4988439;28;89117;-59
2022/08/09 04:37:42;;;;;;;8.25;6.25;;;;;16.60;99267.00;;;;4988432;28;87103;-59
2022/08/09 04:40:10;;;;;;;7.90;6.30;;;16.40;99.90;16.60;99264.00;;;;4990116;28;87196;-60
2022/08/09 04:42:37;;;;;;;8.82;6.03;;;;;16.60;99272.00;;;;4992521;28;88576;-60
2022/08/09 04:45:04;;;;;;;9.93;6.40;;;;;16.60;99270.00;;;;4996364;28;87862;-61
2022/08/09 04:47:31;;;;;;;7.68;5.65;;;;;16.60;99267.00;;;;4980996;28;87270;-61
2022/08/09 04:49:58;;;;;;;8.35;5.95;;;;;16.60;99257.00;;;;4990894;28;86220;-60
2022/08/09 04:52:26;;;;;;;7.30;6.13;;;16.50;99.90;16.60;99256.00;;;;4993466;28;88519;-60
2022/08/09 04:54:54;;;;;;;8.32;6.00;;;16.30;99.90;16.60;99250.00;;;;4990737;28;87126;-60
2022/08/09 04:57:21;;;;;;;7.57;6.22;;;16.60;99.90;16.60;99248.00;;;;4989990;28;89050;-60
2022/08/09 04:59:48;;;;;;;8.13;5.93;;;;;16.60;99239.00;;;;4990740;28;87089;-60
2022/08/09 05:02:14;;;;;;;8.23;6.13;;;;;16.70;99242.00;;;;4991547;28;87524;-59
2022/08/09 05:04:41;;;;;;;10.57;6.88;;;;;16.70;99237.00;;;;4994095;28;87311;-59
2022/08/09 05:07:07;;;;;;;10.85;6.00;;;16.50;99.90;16.90;99237.00;;;;4987098;28;87295;-59
2022/08/09 05:09:34;;;;;;;8.73;5.70;;;;;17.00;99247.00;;;;4989317;28;87026;-60
2022/08/09 05:12:00;;;;;;;9.27;5.53;;;;;17.10;99238.00;;;;4989776;28;87582;-60
2022/08/09 05:14:30;;;;;;;10.98;5.68;;;;;17.20;99229.00;;;;4991988;28;87959;-60
2022/08/09 05:16:58;;;;;;;7.43;5.70;;;16.50;99.90;17.30;99235.00;;;;4991719;28;87148;-60
2022/08/09 05:19:28;;;;;;;11.25;5.95;;;17.00;99.90;17.20;99235.00;;;;4992079;28;87601;-60
2022/08/09 05:21:54;;;;;;;8.07;6.05;;;16.50;99.90;17.10;99244.00;;;;4992193;28;89971;-60
2022/08/09 05:24:21;;;;;;;9.38;5.20;;;;;17.20;99249.00;;;;4974607;28;89353;-67
2022/08/09 05:26:53;;;;;;;8.60;4.72;;;;;17.50;99241.00;;;;4996178;28;87357;-67
2022/08/09 05:29:19;;;;;;;7.45;5.28;;;;;17.60;99238.00;;;;4994077;28;86928;-67
2022/08/09 05:31:50;;;;;;;7.43;5.07;;;17.40;99.90;17.70;99255.00;;;;4994838;28;88653;-67
2022/08/09 05:34:17;;;;;;;8.43;4.60;;;;;17.80;99242.00;;;;5006151;28;87660;-67
2022/08/09 05:36:43;;;;;;;9.55;4.88;;;;;17.80;99244.00;;;;4996085;28;87486;-61
2022/08/09 05:39:10;;;;;;;7.18;4.85;;;17.10;99.90;17.70;99235.00;;;;4991443;28;86901;-60
2022/08/09 05:41:36;;;;;;;7.78;3.90;;;;;17.90;99248.00;;;;4990912;28;89335;-61
2022/08/09 05:44:03;;;;;;;7.72;4.53;;;;;18.10;99236.00;;;;4994506;28;87073;-60
2022/08/09 05:46:30;;;;;;;5.88;4.28;;;;;18.20;99236.00;;;;4997555;28;89007;-60
2022/08/09 05:48:56;;;;;;;8.40;4.28;;;;;18.20;99238.00;;;;4991723;28;87009;-60
2022/08/09 05:51:23;;;;;;;6.32;3.78;;;;;18.20;99239.00;;;;4993630;28;87563;-60
2022/08/09 05:53:50;;;;;;;7.15;4.20;;;;;18.30;99237.00;;;;4994656;28;88446;-60
2022/08/09 05:56:16;;;;;;;10.60;3.85;;;17.80;99.90;18.50;99253.00;;;;4993509;28;87016;-60
2022/08/09 05:58:42;;;;;;;6.78;3.25;;;;;18.40;99239.00;;;;4992101;28;87437;-59
2022/08/09 06:01:10;;;;;;;7.13;3.70;;;18.00;99.90;18.20;99243.00;;;;4995276;28;87923;-59
2022/08/09 06:03:36;;;;;;;7.75;3.55;;;;;18.10;99239.00;;;;4992036;28;87322;-59
2022/08/09 06:06:03;;;;;;;7.53;3.40;;;;;18.30;99245.00;;;;4995437;28;87020;-59
2022/08/09 06:08:29;;;;;;;5.68;3.38;;;;;18.40;99253.00;;;;4994879;28;87070;-59
2022/08/09 06:10:56;;;;;;;7.28;3.80;;;18.00;99.90;18.20;99236.00;;;;4993502;28;88473;-60
2022/08/09 06:13:23;;;;;;;5.00;3.55;;;;;18.10;99224.00;;;;4992887;28;88395;-59
2022/08/09 06:15:50;;;;;;;11.68;4.75;;;;;17.70;99236.00;;;;4994990;28;88154;-59
2022/08/09 06:18:16;;;;;;;7.75;3.90;;;17.50;99.90;17.40;99231.00;;;;4993547;28;87121;-59
2022/08/09 06:20:42;;;;;;;7.82;3.45;;;17.00;99.90;17.30;99230.00;;;;4988754;28;87831;-60
2022/08/09 06:23:08;;;;;;;11.48;4.28;;;16.40;99.90;17.20;99228.00;;;;4985818;28;87031;-59
2022/08/09 06:25:35;;;;;;;4.82;3.40;;;;;17.10;99237.00;;;;4996502;28;87192;-59
2022/08/09 06:28:01;;;;;;;9.25;3.80;;;;;17.00;99241.00;;;;4999908;28;86555;-60
2022/08/09 06:30:28;;;;;;;5.88;3.58;;;;;17.10;99236.00;;;;5003258;28;87581;-60
2022/08/09 06:32:54;;;;;;;7.80;4.20;;;;;17.20;99235.00;;;;4997446;28;87969;-60
2022/08/09 06:35:21;;;;;;;9.55;3.83;;;17.00;99.90;17.30;99233.00;;;;4988484;28;88135;-61
2022/08/09 06:37:47;;;;;;;7.25;3.80;;;17.10;99.90;17.40;99235.00;;;;4990577;28;87590;-59
2022/08/09 06:40:13;;;;;;;6.68;3.15;;;;;17.40;99238.00;;;;4992249;28;88761;-61
2022/08/09 06:42:39;;;;;;;8.52;3.67;;;17.30;99.90;17.40;99230.00;;;;4991203;28;87024;-59
2022/08/09 06:45:07;;;;;;;6.03;3.45;;;16.90;99.90;17.40;99233.00;;;;4994194;28;87272;-59
2022/08/09 06:47:34;;;;;;;7.60;3.70;;;;;17.40;99238.00;;;;4992998;28;87056;-59
2022/08/09 06:50:00;;;;;;;8.27;4.10;;;;;17.60;99225.00;;;;4996419;28;89179;-59
2022/08/09 06:52:27;;;;;;;5.45;3.42;;;;;17.80;99239.00;;;;4995167;28;88260;-60
2022/08/09 06:54:54;;;;;;;5.68;3.10;;;;;18.00;99231.00;;;;4999208;28;87023;-60
2022/08/09 06:57:20;;;;;;;10.35;3.83;;;17.90;99.90;17.80;99238.00;;;;4994147;28;86994;-59
2022/08/09 06:59:47;;;;;;;10.20;3.53;;;;;17.80;99244.00;;;;4993068;28;88807;-60
2022/08/09 07:02:13;;;;;;;9.75;3.50;;;17.80;99.90;17.60;99247.00;;;;4991168;28;88292;-60
2022/08/09 07:04:39;;;;;;;9.38;4.30;;;;;17.40;99241.00;;;;4997848;28;87039;-60
2022/08/09 07:07:06;;;;;;;9.70;4.28;;;;;17.30;99246.00;;;;4997292;28;88076;-60
2022/08/09 07:09:33;;;;;;;10.60;4.43;;;;;17.30;99240.00;;;;4987315;28;88017;-60
2022/08/09 07:11:59;;;;;;;11.02;4.38;;;;;17.20;99252.00;;;;4988700;28;86998;-60
2022/08/09 07:14:26;;;;;;;8.52;4.68;;;;;17.30;99271.00;;;;4992686;28;86863;-60
2022/08/09 07:16:52;;;;;;;8.30;4.50;;;17.60;99.90;17.30;99256.00;;;;4989682;28;86654;-60
2022/08/09 07:19:18;;;;;;;11.35;4.05;;;;;17.40;99256.00;;;;4988336;28;87595;-60
2022/08/09 07:21:45;;;;;;;8.32;4.90;;;17.40;99.90;17.50;99261.00;;;;4997644;28;88441;-60
2022/08/09 07:24:12;;;;;;;11.63;4.97;;;17.60;99.90;17.50;99257.00;;;;4997873;28;88866;-60
2022/08/09 07:26:38;;;;;;;8.63;4.07;;;17.80;99.90;17.60;99257.00;;;;4998822;28;87062;-60
2022/08/09 07:29:04;;;;;;;7.60;4.45;;;17.80;99.90;17.70;99262.00;;;;5002119;28;87568;-60
2022/08/09 07:31:31;;;;;;;7.72;3.92;;;;;17.70;99259.00;;;;5002518;28;87254;-60
2022/08/09 07:33:57;;;;;;;8.80;4.32;;;;;17.60;99254.00;;;;4988900;28;87047;-60
2022/08/09 07:36:24;;;;;;;9.45;3.75;;;;;17.60;99242.00;;;;4990139;28;87794;-60
2022/08/09 07:38:50;;;;;;;13.55;4.60;;;;;17.60;99245.00;;;;4989441;28;88107;-60
2022/08/09 07:41:17;;;;;;;6.15;3.65;;;;;17.90;99248.00;;;;4995244;28;86704;-60
2022/08/09 07:43:44;;;;;;;6.78;3.83;;;;;18.00;99237.00;;;;4989721;28;86982;-60
2022/08/09 07:46:11;;;;;;;9.75;4.15;;;;;18.10;99242.00;;;;4997207;28;87103;-60
2022/08/09 07:48:38;;;;;;;8.38;3.65;;;;;18.10;99244.00;;;;4990446;28;88495;-60
2022/08/09 07:51:04;;;;;;;7.75;3.60;;;17.50;99.90;18.20;99244.00;;;;4987191;28;89700;-60
2022/08/09 07:53:31;;;;;;;8.05;4.40;;;;;18.30;99263.00;;;;4990330;28;87341;-61
2022/08/09 07:55:57;;;;;;;5.80;3.90;;;;;18.20;99262.00;;;;4982700;28;86940;-59
2022/08/09 07:58:24;;;;;;;10.57;3.97;;;;;18.20;99259.00;;;;4991204;28;87618;-60
2022/08/09 08:00:50;;;;;;;8.48;3.78;;;17.80;99.90;18.30;99259.00;;;;4995335;28;88613;-59
2022/08/09 08:03:17;;;;;;;7.63;3.85;;;;;18.40;99261.00;;;;4997664;28;87487;-64
2022/08/09 08:05:43;;;;;;;7.20;4.13;;;;;18.60;99259.00;;;;4995428;28;86255;-64
2022/08/09 08:08:10;;;;;;;6.60;3.50;;;;;18.90;99257.00;;;;4994716;28;88692;-64
2022/08/09 08:10:36;;;;;;;9.15;3.55;;;;;19.20;99266.00;;;;4995290;28;87382;-62
2022/08/09 08:13:03;;;;;;;7.50;3.90;;;;;19.40;99278.00;;;;4998860;28;88151;-60
2022/08/09 08:15:30;;;;;;;6.60;4.07;;;19.00;99.90;19.50;99269.00;;;;4998957;28;88305;-61
2022/08/09 08:17:56;;;;;;;8.73;3.90;;;;;19.20;99270.00;;;;5000823;28;88821;-61
2022/08/09 08:20:27;;;;;;;10.27;3.47;;;19.00;99.90;19.20;99263.00;;;;4997321;28;88263;-62
2022/08/09 08:22:54;;;;;;;10.65;3.90;;;;;19.70;99268.00;;;;4990254;28;87251;-61
2022/08/09 08:25:20;;;;;;;8.35;3.65;;;;;20.00;99271.00;;;;4995665;28;87055;-61
2022/08/09 08:27:47;;;;;;;8.55;3.88;;;;;20.20;99273.00;;;;4994788;28;87558;-60
2022/08/09 08:30:13;;;;;;;10.95;3.78;;;19.80;99.90;20.10;99271.00;;;;5000999;28;87249;-61
2022/08/09 08:32:40;;;;;;;9.43;3.70;;;19.80;99.90;20.30;99284.00;;;;4995226;28;87015;-62
2022/08/09 08:35:07;;;;;;;8.27;3.67;;;;;20.50;99283.00;;;;4994572;28;86959;-62
2022/08/09 08:37:34;;;;;;;5.68;3.10;;;;;20.80;99275.00;;;;4983238;28;89762;-61
2022/08/09 08:40:03;;;;;;;10.55;4.03;;;;;20.70;99270.00;;;;4990418;28;88535;-61
2022/08/09 08:42:31;;;;;;;7.75;3.75;;;20.20;99.90;20.60;99281.00;;;;4997678;28;87557;-60
2022/08/09 08:44:59;;;;;;;7.60;3.92;;;20.40;99.90;20.70;99277.00;;;;4991062;28;87020;-62
2022/08/09 08:47:27;;;;;;;9.15;4.05;;;20.50;99.90;20.80;99275.00;;;;4988686;28;87739;-61
2022/08/09 08:49:55;;;;;;;5.75;3.40;;;20.30;99.90;20.60;99289.00;;;;4991244;28;87201;-60
2022/08/09 08:52:26;;;;;;;6.38;3.03;;;20.40;99.90;20.70;99297.00;;;;4990242;28;87486;-62
2022/08/09 08:54:55;;;;;;;5.95;2.95;;;20.30;99.90;20.60;99285.00;;;;4986214;28;86219;-65
2022/08/09 08:57:23;;;;;;;7.05;3.42;;;20.20;99.90;20.70;99287.00;;;;4990077;28;87726;-65
2022/08/09 08:59:51;;;;;;;4.63;3.38;;;20.40;99.90;20.80;99284.00;;;;4996489;28;87909;-65
2022/08/09 09:02:28;;;;;;;5.20;3.17;;;20.60;99.90;20.70;99289.00;;;;4991207;28;88276;-66
2022/08/09 09:04:58;;;;;;;9.77;3.40;;;20.50;99.90;20.80;99291.00;;;;5000057;28;87476;-65
2022/08/09 09:07:27;;;;;;;8.43;3.30;;;20.10;99.90;20.40;99289.00;;;;4997919;28;87855;-65
2022/08/09 09:09:55;;;;;;;6.22;2.70;;;20.30;99.90;20.60;99292.00;;;;5000025;28;87125;-65
2022/08/09 09:12:29;;;;;;;6.97;3.20;;;20.10;99.90;20.30;99287.00;;;;5003273;28;86991;-66
2022/08/09 09:15:02;;;;;;;4.35;3.10;;;19.90;99.90;20.40;99283.00;;;;4992126;28;87032;-66
2022/08/09 09:17:30;;;;;;;5.78;2.75;;;;;20.40;99278.00;;;;4989340;28;88944;-65
2022/08/09 09:19:56;;;;;;;6.88;3.38;;;;;20.40;99271.00;;;;4994295;28;87276;-65
2022/08/09 09:22:23;;;;;;;5.20;3.25;;;;;20.30;99265.00;;;;4995851;28;87588;-66
2022/08/09 09:24:53;;;;;;;6.57;3.33;;;20.00;99.90;20.10;99264.00;;;;4997827;28;87021;-65
2022/08/09 09:27:26;;;;;;;7.90;3.42;;;19.90;99.90;20.20;99261.00;;;;4963761;28;92275;-65
2022/08/09 09:29:54;;;;;;;9.13;3.38;;;19.90;99.90;20.10;99267.00;;;;5004439;28;89331;-65
2022/08/09 09:32:26;;;;;;;11.65;3.50;;;19.90;99.90;19.90;99267.00;;;;5002362;28;86960;-65
2022/08/09 09:35:09;;;;;;;10.07;3.00;;;19.50;99.90;20.00;99269.00;;;;4993883;28;87474;-66
2022/08/09 09:37:36;;;;;;;7.55;3.10;;;;;20.30;99261.00;;;;4987159;28;87491;-65
2022/08/09 09:40:04;;;;;;;7.40;2.95;;;20.40;99.90;20.60;99269.00;;;;4990958;28;87524;-65
2022/08/09 09:42:31;;;;;;;8.40;3.80;;;;;20.60;99259.00;;;;4993647;28;87067;-65
2022/08/09 09:45:00;;;;;;;5.70;3.13;;;20.40;99.90;20.60;99269.00;;;;4994406;28;86426;-65
2022/08/09 09:47:28;;;;;;;7.60;2.80;;;20.50;99.90;20.60;99269.00;;;;4991316;28;87551;-66
2022/08/09 09:49:58;;;;;;;6.45;2.92;;;20.40;99.90;20.70;99267.00;;;;4997998;28;87189;-66
2022/08/09 09:52:28;;;;;;;6.20;3.40;;;20.10;99.90;20.40;99257.00;;;;4992272;28;87923;-66
2022/08/09 09:55:07;;;;;;;6.82;2.90;;;20.40;99.90;20.70;99260.00;;;;4988136;28;87435;-66
2022/08/09 09:57:33;;;;;;;7.53;2.97;;;;;20.90;99267.00;;;;4992613;28;87603;-66
2022/08/09 10:00:00;;;;;;;12.23;3.22;;;20.80;99.90;21.20;99267.00;;;;4992106;28;87603;-66
2022/08/09 10:02:28;;;;;;;8.02;3.00;;;20.80;99.90;21.30;99262.00;;;;4993937;28;87493;-66
2022/08/09 10:05:09;;;;;;;8.05;2.75;;;21.10;99.90;21.30;99256.00;;;;4993033;28;87655;-66
2022/08/09 10:07:36;;;;;;;6.38;2.97;;;21.00;99.90;21.30;99258.00;;;;4991384;28;87565;-66
2022/08/09 10:10:05;;;;;;;8.48;3.40;;;21.00;99.90;21.30;99260.00;;;;5000740;28;88416;-66
2022/08/09 10:12:35;;;;;;;9.18;2.95;;;;;21.00;99266.00;;;;4995489;28;86918;-66
2022/08/09 10:15:14;;;;;;;7.10;2.70;;;20.90;99.90;21.10;99262.00;;;;4990223;28;87045;-66
2022/08/09 10:17:43;;;;;;;6.20;2.72;;;21.10;99.90;21.40;99259.00;;;;4989058;28;88213;-65
2022/08/09 10:20:19;;;;;;;5.20;2.50;;;21.20;99.90;21.50;99259.00;;;;4990838;28;87305;-66
2022/08/09 10:22:52;;;;;;;8.40;2.88;;;20.80;99.90;20.90;99263.00;;;;5000727;28;86830;-66
2022/08/09 10:25:19;;;;;;;6.35;2.50;;;21.10;99.90;21.10;99260.00;;;;4999096;28;86912;-66
2022/08/09 10:27:46;;;;;;;9.07;2.47;;;20.90;99.90;21.20;99266.00;;;;4997375;28;87622;-66
2022/08/09 10:30:15;;;;;;;5.30;2.70;;;20.60;99.90;20.80;99256.00;;;;4990873;28;87197;-66
2022/08/09 10:32:44;;;;;;;7.70;2.33;;;20.60;99.90;20.80;99269.00;;;;4988235;28;86976;-66
2022/08/09 10:35:10;;;;;;;5.82;2.28;;;;;21.00;99262.00;;;;4992908;28;86874;-65
2022/08/09 10:37:37;;;;;;;7.95;2.92;;;;;21.20;99254.00;;;;4994897;28;88004;-65
2022/08/09 10:40:06;;;;;;;6.78;2.58;;;21.20;99.90;21.40;99259.00;;;;4993371;28;87468;-65
2022/08/09 10:42:33;;;;;;;5.13;2.22;;;21.10;99.90;21.30;99271.00;;;;4991111;28;87891;-65
2022/08/09 10:45:06;;;;;;;3.97;2.35;;;21.10;99.90;21.40;99255.00;;;;4994714;28;86894;-65
2022/08/09 10:48:20;;;;;;;6.35;2.45;;;21.40;99.90;21.80;99261.00;;;;4972707;28;88700;-65
2022/08/09 10:51:11;;;;;;;6.47;2.78;;;21.70;99.90;22.20;99264.00;;;;4982937;28;90039;-65
2022/08/09 10:53:58;;;;;;;5.10;3.20;;;21.80;99.90;22.20;99267.00;;;;4990098;28;87060;-65
2022/08/09 10:56:26;;;;;;;6.95;2.63;;;;;22.40;99263.00;;;;5000744;28;86971;-65
2022/08/09 10:58:56;;;;;;;5.03;2.40;;;22.10;99.90;22.20;99270.00;;;;4993332;28;86945;-65
2022/08/09 11:01:31;;;;;;;8.05;3.83;;;22.00;99.90;22.00;99273.00;;;;4988048;28;87237;-65
2022/08/09 11:04:10;;;;;;;7.18;2.70;;;21.70;99.90;22.20;99285.00;;;;4997893;28;86946;-66
2022/08/09 11:06:37;;;;;;;5.80;2.80;;;21.80;99.90;22.00;99282.00;;;;4998380;28;86964;-65
2022/08/09 11:09:06;;;;;;;5.68;2.47;;;21.70;99.90;22.10;99282.00;;;;4990909;28;88614;-65
2022/08/09 11:11:54;;;;;;;2.58;1.75;;;21.80;99.90;22.20;99276.00;;;;4985713;28;88268;-65
2022/08/09 11:14:34;;;;;;;3.67;2.42;;;21.80;99.90;22.20;99280.00;;;;4989480;28;86954;-66
2022/08/09 11:17:15;;;;;;;4.80;2.15;;;21.80;99.90;22.20;99279.00;;;;4994311;28;86987;-66
2022/08/09 11:20:09;;;;;;;3.35;2.20;;;21.80;99.90;22.10;99271.00;;;;4986749;28;87619;-66
2022/08/09 11:22:41;;;;;;;3.08;2.30;;;21.80;99.90;21.90;99275.00;;;;4985150;28;88836;-66
2022/08/09 11:25:20;;;;;;;7.28;2.28;;;21.50;99.90;21.80;99270.00;;;;4988278;28;87195;-66
2022/08/09 11:27:55;;;;;;;4.60;2.20;;;21.70;99.90;21.80;99279.00;;;;4991155;28;86486;-66
2022/08/09 11:30:21;;;;;;;7.60;2.72;;;;;21.80;99273.00;;;;4982881;28;88668;-65